Time;durP1;ratioP1;P1;durP2;ratioP2;P2;SDS_P1;SDS_P2;PMS_P1;PMS_P2;Temp;Humidity;BMP_temperature;BMP_pressure;BME280_temperature;BME280_humidity;BME280_pressure;Samples;Min_cycle;Max_cycle;Signal;HPM_P1;HPM_P2
2023/01/07 00:01:41;;;;;;;86.03;63.90;;;8.70;99.90;;;;;;5011297;28;20171;-76
2023/01/07 00:04:13;;;;;;;78.60;66.57;;;8.80;99.90;;;;;;5010737;28;20124;-79
2023/01/07 00:06:40;;;;;;;69.33;48.87;;;8.80;99.90;;;;;;4998037;28;20327;-77
2023/01/07 00:09:10;;;;;;;88.17;55.93;;;8.90;99.90;;;;;;4991306;28;20392;-77
2023/01/07 00:11:37;;;;;;;90.23;72.40;;;8.90;99.90;;;;;;5010726;28;20529;-76
2023/01/07 00:14:06;;;;;;;91.67;62.27;;;8.90;99.90;;;;;;5010786;28;20100;-77
2023/01/07 00:16:33;;;;;;;84.53;56.50;;;9.00;99.90;;;;;;4996540;28;20577;-80
2023/01/07 00:19:01;;;;;;;93.83;71.93;;;9.00;99.90;;;;;;5008731;28;20758;-77
2023/01/07 00:21:27;;;;;;;102.47;78.53;;;9.10;99.90;;;;;;5011220;28;20054;-76
2023/01/07 00:24:04;;;;;;;90.67;63.97;;;9.10;99.90;;;;;;5030008;28;20050;-77
2023/01/07 00:26:33;;;;;;;88.93;53.27;;;9.20;99.90;;;;;;5000161;28;20045;-80
2023/01/07 00:28:59;;;;;;;99.23;71.93;;;9.10;99.90;;;;;;5028164;28;20444;-76
2023/01/07 00:31:28;;;;;;;92.70;57.37;;;9.20;99.90;;;;;;5030534;28;20049;-76
2023/01/07 00:36:28;;;;;;;91.57;63.20;;;9.30;99.90;;;;;;5006135;28;20125;-77
2023/01/07 00:39:15;;;;;;;95.87;66.73;;;9.30;99.90;;;;;;5007930;28;20045;-77
2023/01/07 00:42:53;;;;;;;92.73;64.90;;;9.40;99.90;;;;;;5011043;28;20045;-76
2023/01/07 00:44:28;;;;;;;98.80;72.07;;;9.40;99.90;;;;;;5010160;28;20096;-76
2023/01/07 00:46:54;;;;;;;101.30;56.57;;;9.40;99.90;;;;;;4994775;28;20073;-77
2023/01/07 00:49:19;;;;;;;96.00;73.27;;;9.40;99.90;;;;;;5009374;28;20121;-77
2023/01/07 00:51:45;;;;;;;93.57;64.17;;;9.50;99.90;;;;;;4992651;28;20046;-77
2023/01/07 00:54:11;;;;;;;93.87;59.43;;;9.50;99.90;;;;;;4992687;28;20376;-77
2023/01/07 00:56:36;;;;;;;90.70;66.13;;;9.50;99.90;;;;;;4995982;28;20399;-78
2023/01/07 00:59:02;;;;;;;86.80;56.27;;;9.50;99.90;;;;;;4974756;28;20053;-76
2023/01/07 01:01:28;;;;;;;90.03;62.20;;;9.60;99.90;;;;;;5010246;28;20129;-77
2023/01/07 01:03:53;;;;;;;92.90;63.57;;;9.60;99.90;;;;;;5008993;28;20077;-76
2023/01/07 01:06:19;;;;;;;85.50;60.13;;;9.60;99.90;;;;;;4999931;28;20725;-77
2023/01/07 01:08:45;;;;;;;97.23;69.80;;;9.60;99.90;;;;;;4987626;28;20058;-77
2023/01/07 01:11:13;;;;;;;95.50;69.87;;;9.70;99.90;;;;;;5010138;28;20132;-77
2023/01/07 01:13:40;;;;;;;87.43;63.83;;;9.60;99.90;;;;;;5009353;28;20136;-77
2023/01/07 01:16:08;;;;;;;81.67;61.60;;;9.70;99.90;;;;;;5009625;28;20064;-77
2023/01/07 01:18:34;;;;;;;83.37;62.60;;;9.80;99.90;;;;;;4999681;28;20086;-77
2023/01/07 01:21:05;;;;;;;79.43;61.20;;;9.80;99.90;;;;;;4992920;28;20056;-76
2023/01/07 01:23:30;;;;;;;88.43;66.25;;;9.70;99.90;;;;;;5025246;28;20411;-78
2023/01/07 01:26:11;;;;;;;88.17;60.57;;;9.80;99.90;;;;;;5029728;28;20041;-77
2023/01/07 01:28:37;;;;;;;77.90;55.33;;;9.80;99.90;;;;;;5022687;28;20049;-77
2023/01/07 01:31:04;;;;;;;85.20;64.80;;;9.80;99.90;;;;;;5028570;28;20403;-77
2023/01/07 01:33:30;;;;;;;82.00;57.17;;;9.80;99.90;;;;;;5029424;28;20060;-77
2023/01/07 01:35:55;;;;;;;74.00;54.50;;;9.80;99.90;;;;;;5018356;28;20400;-76
2023/01/07 01:38:21;;;;;;;85.50;52.30;;;9.90;99.90;;;;;;4994096;28;20046;-78
2023/01/07 01:40:47;;;;;;;83.10;63.90;;;9.90;99.90;;;;;;4992625;28;20631;-78
2023/01/07 01:43:24;;;;;;;72.73;60.07;;;9.90;99.90;;;;;;5008718;28;20054;-77
2023/01/07 01:45:50;;;;;;;79.57;62.50;;;10.00;99.90;;;;;;5010282;28;20077;-77
2023/01/07 01:48:18;;;;;;;67.83;57.57;;;9.90;99.90;;;;;;4993598;28;20104;-77
2023/01/07 01:50:45;;;;;;;84.43;72.80;;;10.00;99.90;;;;;;5008964;28;20045;-76
2023/01/07 01:53:20;;;;;;;67.27;56.23;;;10.00;99.90;;;;;;5008763;28;20077;-77
2023/01/07 01:56:00;;;;;;;64.13;56.00;;;10.10;99.90;;;;;;4991808;28;20569;-77
2023/01/07 01:58:37;;;;;;;66.67;53.93;;;10.10;99.90;;;;;;4976015;28;20080;-76
2023/01/07 02:01:03;;;;;;;64.27;53.63;;;10.00;99.90;;;;;;4991820;28;20088;-76
2023/01/07 02:03:32;;;;;;;61.37;51.57;;;10.10;99.90;;;;;;5008807;28;20054;-77
2023/01/07 02:05:58;;;;;;;61.00;54.77;;;10.00;99.90;;;;;;5009311;28;20132;-77
2023/01/07 02:08:24;;;;;;;60.17;53.60;;;10.10;99.90;;;;;;4976004;28;20061;-77
2023/01/07 02:11:16;;;;;;;71.10;64.37;;;10.00;99.90;;;;;;5009401;28;20117;-77
2023/01/07 02:13:50;;;;;;;66.87;60.03;;;10.10;99.90;;;;;;4962595;28;20054;-76
2023/01/07 02:17:03;;;;;;;62.87;56.27;;;10.10;99.90;;;;;;5000168;28;20046;-76
2023/01/07 02:19:42;;;;;;;69.93;63.47;;;10.20;99.90;;;;;;5002633;28;20491;-76
2023/01/07 02:22:15;;;;;;;55.07;46.90;;;10.20;99.90;;;;;;5013298;28;20172;-75
2023/01/07 02:24:51;;;;;;;70.63;63.83;;;10.20;99.90;;;;;;5029153;28;20472;-76
2023/01/07 02:27:39;;;;;;;80.57;73.87;;;10.20;99.90;;;;;;5012397;28;20038;-76
2023/01/07 02:30:35;;;;;;;83.00;76.07;;;10.30;99.90;;;;;;5029132;28;20095;-76
2023/01/07 02:33:14;;;;;;;80.90;73.97;;;10.20;99.90;;;;;;5010290;28;20037;-77
2023/01/07 02:36:05;;;;;;;71.57;64.30;;;10.20;99.90;;;;;;5002645;28;20046;-79
2023/01/07 02:38:34;;;;;;;75.80;69.37;;;10.20;99.90;;;;;;4977430;28;20506;-76
2023/01/07 02:41:27;;;;;;;68.57;62.20;;;10.20;99.90;;;;;;5009411;28;20280;-77
2023/01/07 02:44:40;;;;;;;86.07;79.63;;;10.30;99.90;;;;;;5012246;28;20049;-77
2023/01/07 02:47:10;;;;;;;64.50;58.67;;;10.20;99.90;;;;;;4952613;28;20049;-76
2023/01/07 02:49:36;;;;;;;95.43;88.53;;;10.30;99.90;;;;;;5013259;28;20092;-77
2023/01/07 02:52:18;;;;;;;56.70;51.03;;;10.30;99.90;;;;;;5012260;28;20069;-77
2023/01/07 02:54:46;;;;;;;69.10;63.40;;;10.30;99.90;;;;;;5012777;28;20081;-75
2023/01/07 02:57:37;;;;;;;72.60;66.90;;;10.30;99.90;;;;;;4996162;28;20048;-76
2023/01/07 03:00:03;;;;;;;;;;;10.30;99.90;;;;;;5002563;28;20451;-76
2023/01/07 03:02:43;;;;;;;54.67;49.60;;;10.30;99.90;;;;;;5010732;28;19921;-76
2023/01/07 03:05:40;;;;;;;37.80;33.08;;;10.30;99.90;;;;;;5013044;28;20065;-79
2023/01/07 03:08:37;;;;;;;49.97;45.07;;;10.30;99.90;;;;;;4995662;28;20054;-76
2023/01/07 03:11:06;;;;;;;53.23;48.33;;;10.30;99.90;;;;;;5012290;28;20046;-76
2023/01/07 03:13:44;;;;;;;58.70;53.70;;;10.30;99.90;;;;;;5011529;28;20061;-76
2023/01/07 03:16:32;;;;;;;64.33;59.33;;;10.30;99.90;;;;;;5006133;28;20072;-76
2023/01/07 03:19:18;;;;;;;54.97;50.23;;;10.30;99.90;;;;;;4991908;28;20045;-77
2023/01/07 03:21:46;;;;;;;71.47;65.90;;;10.30;99.90;;;;;;5013505;28;20069;-76
2023/01/07 03:24:13;;;;;;;62.33;57.30;;;10.30;99.90;;;;;;5031442;28;20049;-76
2023/01/07 03:26:44;;;;;;;57.90;52.77;;;10.30;99.90;;;;;;5018196;28;20390;-79
2023/01/07 03:29:13;;;;;;;52.75;47.90;;;10.30;99.90;;;;;;5030517;28;20053;-76
2023/01/07 03:31:45;;;;;;;65.90;60.40;;;10.30;99.90;;;;;;5031596;28;20053;-76
2023/01/07 03:34:16;;;;;;;61.97;56.37;;;10.30;99.90;;;;;;5031395;28;20442;-76
2023/01/07 03:36:45;;;;;;;;;;;10.30;99.90;;;;;;4983733;28;20531;-76
2023/01/07 03:39:12;;;;;;;60.17;54.97;;;10.30;99.90;;;;;;5012050;28;19967;-76
2023/01/07 03:44:23;;;;;;;64.53;59.43;;;10.30;99.90;;;;;;5010781;28;20046;-77
2023/01/07 03:46:50;;;;;;;70.50;64.93;;;10.30;99.90;;;;;;4996331;28;20050;-76
2023/01/07 03:49:16;;;;;;;64.80;59.30;;;10.30;99.90;;;;;;5010579;28;20037;-79
2023/01/07 03:51:41;;;;;;;67.90;62.23;;;10.30;99.90;;;;;;5010439;28;20057;-76
2023/01/07 03:54:07;;;;;;;74.00;68.10;;;10.30;99.90;;;;;;5010563;28;20066;-76
2023/01/07 03:56:33;;;;;;;72.80;67.30;;;10.30;99.90;;;;;;4997501;28;20049;-76
2023/01/07 03:58:58;;;;;;;115.47;107.80;;;10.30;99.90;;;;;;4991335;28;20105;-77
2023/01/07 04:01:26;;;;;;;87.47;81.07;;;10.30;99.90;;;;;;5011422;28;20084;-76
2023/01/07 04:03:52;;;;;;;64.57;59.13;;;10.30;99.90;;;;;;5010518;28;20141;-76
2023/01/07 04:06:17;;;;;;;68.43;63.13;;;10.30;99.90;;;;;;5002172;28;20125;-76
2023/01/07 04:08:43;;;;;;;67.77;62.53;;;10.40;99.90;;;;;;5004494;28;20480;-76
2023/01/07 04:11:09;;;;;;;67.40;61.90;;;10.30;99.90;;;;;;5011030;28;20065;-75
2023/01/07 04:13:34;;;;;;;62.17;57.20;;;10.30;99.90;;;;;;5010154;28;20054;-76
2023/01/07 04:16:00;;;;;;;99.47;92.93;;;10.30;99.90;;;;;;5010692;28;20100;-75
2023/01/07 04:18:26;;;;;;;71.60;66.20;;;10.30;99.90;;;;;;4994674;28;20252;-76
2023/01/07 04:20:51;;;;;;;52.17;47.87;;;10.30;99.90;;;;;;5010871;28;20093;-76
2023/01/07 04:23:17;;;;;;;75.63;69.83;;;10.30;99.90;;;;;;5024655;28;20056;-76
2023/01/07 04:25:46;;;;;;;58.93;54.07;;;10.30;99.90;;;;;;5012798;28;20503;-76
2023/01/07 04:28:11;;;;;;;65.20;60.23;;;10.20;99.90;;;;;;5014608;28;20041;-76
2023/01/07 04:30:37;;;;;;;116.23;107.90;;;10.30;99.90;;;;;;5030679;28;20146;-76
2023/01/07 04:33:04;;;;;;;49.07;45.07;;;10.30;99.90;;;;;;5011548;28;20099;-76
2023/01/07 04:35:30;;;;;;;103.70;96.50;;;10.30;99.90;;;;;;5024263;28;20053;-75
2023/01/07 04:37:56;;;;;;;74.60;69.37;;;10.30;99.90;;;;;;4961720;28;20515;-76
2023/01/07 04:40:22;;;;;;;55.90;51.33;;;10.30;99.90;;;;;;5010943;28;20054;-76
2023/01/07 04:42:48;;;;;;;76.80;71.20;;;10.30;99.90;;;;;;5009374;28;20076;-76
2023/01/07 04:45:13;;;;;;;65.10;59.83;;;10.30;99.90;;;;;;5010753;28;20655;-75
2023/01/07 04:47:39;;;;;;;80.83;74.73;;;10.30;99.90;;;;;;4960597;28;20120;-76
2023/01/07 04:50:05;;;;;;;71.60;65.97;;;10.30;99.90;;;;;;5011218;28;20042;-76
2023/01/07 04:52:31;;;;;;;60.20;55.10;;;10.20;99.90;;;;;;5009099;28;20081;-75
2023/01/07 04:54:57;;;;;;;63.70;58.77;;;10.20;99.90;;;;;;5010700;28;20077;-76
2023/01/07 04:57:22;;;;;;;66.50;61.23;;;10.20;99.90;;;;;;4975759;28;20150;-76
2023/01/07 04:59:48;;;;;;;93.37;85.90;;;10.20;99.90;;;;;;5010432;28;20052;-76
2023/01/07 05:02:13;;;;;;;86.77;80.60;;;10.30;99.90;;;;;;5009498;28;20095;-76
2023/01/07 05:04:39;;;;;;;75.17;69.63;;;10.10;99.90;;;;;;4992660;28;20146;-76
2023/01/07 05:07:05;;;;;;;84.57;78.07;;;10.10;99.90;;;;;;4993785;28;20267;-76
2023/01/07 05:09:31;;;;;;;69.03;63.73;;;10.10;99.90;;;;;;5009706;28;20476;-76
2023/01/07 05:11:56;;;;;;;93.93;87.17;;;10.10;99.90;;;;;;5010244;28;20076;-77
2023/01/07 05:14:22;;;;;;;62.87;57.63;;;10.00;99.90;;;;;;5009581;28;20133;-77
2023/01/07 05:16:48;;;;;;;86.50;80.17;;;10.00;99.90;;;;;;4994750;28;20048;-76
2023/01/07 05:19:13;;;;;;;62.00;56.80;;;10.00;99.90;;;;;;5009158;28;20205;-76
2023/01/07 05:21:39;;;;;;;65.27;59.53;;;10.00;99.90;;;;;;5010679;28;20050;-76
2023/01/07 05:24:05;;;;;;;70.23;64.53;;;10.00;99.90;;;;;;5010704;28;20042;-76
2023/01/07 05:26:31;;;;;;;73.47;67.77;;;10.00;99.90;;;;;;4996401;28;20049;-77
2023/01/07 05:28:56;;;;;;;57.57;52.63;;;10.00;99.90;;;;;;4990027;28;20045;-76
2023/01/07 05:31:22;;;;;;;71.87;66.37;;;10.00;99.90;;;;;;5010432;28;20294;-76
2023/01/07 05:33:47;;;;;;;68.33;63.10;;;10.00;99.90;;;;;;5008882;28;20554;-76
2023/01/07 05:36:13;;;;;;;60.73;55.00;;;10.00;99.90;;;;;;4999809;28;20155;-77
2023/01/07 05:38:39;;;;;;;62.77;57.77;;;10.00;99.90;;;;;;5003358;28;20056;-76
2023/01/07 05:41:04;;;;;;;59.67;54.90;;;10.00;99.90;;;;;;5008499;28;20411;-77
2023/01/07 05:43:30;;;;;;;72.93;67.87;;;10.10;99.90;;;;;;5009041;28;20116;-77
2023/01/07 05:45:57;;;;;;;62.37;57.43;;;10.00;99.90;;;;;;4992587;28;20084;-76
2023/01/07 05:48:23;;;;;;;78.90;73.17;;;10.10;99.90;;;;;;4993174;28;20084;-76
2023/01/07 05:50:49;;;;;;;58.03;53.57;;;10.10;99.90;;;;;;5009342;28;20386;-76
2023/01/07 05:53:15;;;;;;;58.93;54.37;;;10.10;99.90;;;;;;4991323;28;20046;-75
2023/01/07 05:55:40;;;;;;;57.30;52.67;;;10.10;99.90;;;;;;5009745;28;20076;-77
2023/01/07 05:58:06;;;;;;;58.03;53.47;;;10.20;99.90;;;;;;4984004;28;20124;-77
2023/01/07 06:00:33;;;;;;;55.93;51.63;;;10.10;99.90;;;;;;4988594;28;20573;-76
2023/01/07 06:02:59;;;;;;;48.77;44.57;;;10.00;99.90;;;;;;5003334;28;20061;-78
2023/01/07 06:05:24;;;;;;;55.03;50.53;;;10.00;99.90;;;;;;5007142;28;20054;-76
2023/01/07 06:07:50;;;;;;;143.77;135.13;;;10.00;99.90;;;;;;4982785;28;20056;-76
2023/01/07 06:10:16;;;;;;;50.43;46.37;;;10.10;99.90;;;;;;4992294;28;20483;-76
2023/01/07 06:12:42;;;;;;;59.50;54.80;;;10.10;99.90;;;;;;4999403;28;20049;-76
2023/01/07 06:15:08;;;;;;;49.03;44.93;;;10.00;99.90;;;;;;5008893;28;20042;-79
2023/01/07 06:17:33;;;;;;;74.10;69.40;;;9.90;99.90;;;;;;4992574;28;20046;-76
2023/01/07 06:20:00;;;;;;;50.67;46.53;;;9.90;99.90;;;;;;5013767;28;20384;-76
2023/01/07 06:22:25;;;;;;;55.73;51.40;;;9.90;99.90;;;;;;5019824;28;20049;-76
2023/01/07 06:24:51;;;;;;;75.53;70.23;;;10.00;99.90;;;;;;4990051;28;20054;-76
2023/01/07 06:27:17;;;;;;;65.53;60.63;;;9.90;99.90;;;;;;5008206;28;20042;-76
2023/01/07 06:29:43;;;;;;;52.07;47.90;;;9.80;99.90;;;;;;5013157;28;20123;-75
2023/01/07 06:32:09;;;;;;;69.73;64.73;;;9.80;99.90;;;;;;5012410;28;20092;-75
2023/01/07 06:34:34;;;;;;;62.70;58.17;;;9.80;99.90;;;;;;4995738;28;20061;-76
2023/01/07 06:37:00;;;;;;;63.13;58.53;;;9.70;99.90;;;;;;4997819;28;20400;-76
2023/01/07 06:39:26;;;;;;;52.20;48.13;;;9.70;99.90;;;;;;5012915;28;20111;-76
2023/01/07 06:41:51;;;;;;;64.77;59.87;;;9.70;99.90;;;;;;5011910;28;20049;-76
2023/01/07 06:44:17;;;;;;;91.80;86.10;;;9.60;99.90;;;;;;5012278;28;20057;-75
2023/01/07 06:46:43;;;;;;;66.83;62.13;;;9.60;99.90;;;;;;4999204;28;20077;-76
2023/01/07 06:49:08;;;;;;;62.57;58.17;;;9.60;99.90;;;;;;4993865;28;20306;-78
2023/01/07 06:51:34;;;;;;;74.93;70.03;;;9.70;99.90;;;;;;5012360;28;20048;-76
2023/01/07 06:54:00;;;;;;;64.83;60.23;;;9.60;99.90;;;;;;5011549;28;20137;-76
2023/01/07 06:56:26;;;;;;;118.23;111.47;;;9.70;99.90;;;;;;4997716;28;20341;-76
2023/01/07 06:58:51;;;;;;;95.67;89.67;;;9.70;99.90;;;;;;5008672;28;20114;-76
2023/01/07 07:01:17;;;;;;;64.10;59.60;;;9.80;99.90;;;;;;5012251;28;20511;-76
2023/01/07 07:03:43;;;;;;;74.63;69.87;;;9.80;99.90;;;;;;5011882;28;20140;-76
2023/01/07 07:06:09;;;;;;;62.67;58.47;;;9.80;99.90;;;;;;5006447;28;20053;-77
2023/01/07 07:08:35;;;;;;;70.17;65.33;;;9.80;99.90;;;;;;5002275;28;20050;-76
2023/01/07 07:11:00;;;;;;;53.60;49.53;;;9.80;99.90;;;;;;5012621;28;20471;-76
2023/01/07 07:13:26;;;;;;;68.77;64.27;;;9.70;99.90;;;;;;5011760;28;20053;-76
2023/01/07 07:15:52;;;;;;;113.97;106.93;;;9.70;99.90;;;;;;5012621;28;20052;-76
2023/01/07 07:18:18;;;;;;;71.70;66.87;;;9.80;99.90;;;;;;4995784;28;20104;-75
2023/01/07 07:20:45;;;;;;;46.43;42.77;;;9.80;99.90;;;;;;5012362;28;20407;-76
2023/01/07 07:23:11;;;;;;;66.07;61.73;;;9.80;99.90;;;;;;5024492;28;20568;-76
2023/01/07 07:25:36;;;;;;;120.80;112.10;;;9.70;99.90;;;;;;5031681;28;20042;-76
2023/01/07 07:28:02;;;;;;;36.20;33.43;;;9.80;99.90;;;;;;5014400;28;20045;-76
2023/01/07 07:30:28;;;;;;;45.23;41.80;;;9.70;99.90;;;;;;5032086;28;20045;-76
2023/01/07 07:32:53;;;;;;;52.43;48.77;;;9.70;99.90;;;;;;5030037;28;20291;-77
2023/01/07 07:35:19;;;;;;;62.20;58.17;;;9.70;99.90;;;;;;5026448;28;20120;-76
2023/01/07 07:37:44;;;;;;;46.57;43.13;;;9.70;99.90;;;;;;4996572;28;20427;-77
2023/01/07 07:40:11;;;;;;;74.93;69.97;;;9.70;99.90;;;;;;5011894;28;20046;-76
2023/01/07 07:42:37;;;;;;;57.53;53.73;;;9.60;99.90;;;;;;5010649;28;20553;-77
2023/01/07 07:45:05;;;;;;;44.60;41.43;;;9.60;99.90;;;;;;4993665;28;20248;-77
2023/01/07 07:47:30;;;;;;;47.27;43.93;;;9.60;99.90;;;;;;4977682;28;20081;-77
2023/01/07 07:49:56;;;;;;;57.87;53.97;;;9.50;99.90;;;;;;5011743;28;20085;-76
2023/01/07 07:52:22;;;;;;;46.43;42.83;;;9.60;99.90;;;;;;5010031;28;20053;-77
2023/01/07 07:54:47;;;;;;;59.83;55.83;;;9.60;99.90;;;;;;5011315;28;20050;-76
2023/01/07 07:57:13;;;;;;;61.77;56.93;;;9.50;99.90;;;;;;4988034;28;20157;-76
2023/01/07 07:59:39;;;;;;;50.83;46.43;;;9.60;99.90;;;;;;4989127;28;20054;-76
2023/01/07 08:02:04;;;;;;;66.90;61.27;;;9.60;99.90;;;;;;5002127;28;20053;-74
2023/01/07 08:04:33;;;;;;;65.70;60.90;;;9.60;99.90;;;;;;5008285;28;20050;-76
2023/01/07 08:07:00;;;;;;;63.03;57.93;;;9.50;99.90;;;;;;4992984;28;20141;-77
2023/01/07 08:09:25;;;;;;;39.37;35.97;;;9.60;99.90;;;;;;4984302;28;20096;-77
2023/01/07 08:11:51;;;;;;;46.37;43.03;;;9.60;99.90;;;;;;4987240;28;20053;-77
2023/01/07 08:14:17;;;;;;;62.27;58.07;;;9.70;99.90;;;;;;4988307;28;20046;-76
2023/01/07 08:16:42;;;;;;;45.57;42.37;;;9.50;99.90;;;;;;4956333;28;20067;-76
2023/01/07 08:19:09;;;;;;;35.10;32.40;;;9.60;99.90;;;;;;4967846;28;20038;-77
2023/01/07 08:21:35;;;;;;;58.47;54.97;;;9.50;99.90;;;;;;4971021;28;20057;-77
2023/01/07 08:24:00;;;;;;;47.20;44.23;;;9.50;99.90;;;;;;4991710;28;20136;-76
2023/01/07 08:26:26;;;;;;;51.30;47.77;;;9.40;99.90;;;;;;4975483;28;21055;-77
2023/01/07 08:28:53;;;;;;;58.33;54.67;;;9.50;99.90;;;;;;4976701;28;20046;-77
2023/01/07 08:31:19;;;;;;;56.40;52.90;;;9.40;99.90;;;;;;5006631;28;20049;-76
2023/01/07 08:33:44;;;;;;;69.20;65.13;;;9.40;99.90;;;;;;4988733;28;20385;-77
2023/01/07 08:36:10;;;;;;;48.87;45.87;;;9.50;99.90;;;;;;4999847;28;20053;-77
2023/01/07 08:38:36;;;;;;;45.17;42.33;;;9.40;99.90;;;;;;4964145;28;20053;-77
2023/01/07 08:41:01;;;;;;;103.17;97.23;;;9.40;99.90;;;;;;5005921;28;20144;-76
2023/01/07 08:43:27;;;;;;;84.00;79.37;;;9.40;99.90;;;;;;4956229;28;20042;-76
2023/01/07 08:45:54;;;;;;;64.63;60.43;;;9.40;99.90;;;;;;5003289;28;20531;-79
2023/01/07 08:48:20;;;;;;;61.23;57.67;;;9.50;99.90;;;;;;4971408;28;20046;-77
2023/01/07 08:50:51;;;;;;;77.97;73.30;;;9.50;99.90;;;;;;4988315;28;20046;-79
2023/01/07 08:53:18;;;;;;;67.57;60.80;;;9.50;99.90;;;;;;4986881;28;20138;-77
2023/01/07 08:55:44;;;;;;;53.73;49.07;;;9.60;99.90;;;;;;4986905;28;20077;-77
2023/01/07 08:58:10;;;;;;;55.93;52.80;;;9.80;99.90;;;;;;4971114;28;20085;-76
2023/01/07 09:00:35;;;;;;;77.63;73.47;;;9.70;99.90;;;;;;4969171;28;20102;-76
2023/01/07 09:03:02;;;;;;;41.20;38.67;;;9.80;99.90;;;;;;4985833;28;20550;-76
2023/01/07 09:05:28;;;;;;;55.93;52.73;;;9.80;99.90;;;;;;4993024;28;20041;-76
2023/01/07 09:07:55;;;;;;;45.30;42.70;;;9.70;99.90;;;;;;4987633;28;20044;-76
2023/01/07 09:10:22;;;;;;;274.10;258.27;;;9.70;99.90;;;;;;4988381;28;20054;-76
2023/01/07 09:12:47;;;;;;;80.00;75.70;;;9.70;99.90;;;;;;5005069;28;20068;-76
2023/01/07 09:15:13;;;;;;;73.63;69.67;;;9.60;99.90;;;;;;5006588;28;20495;-77
2023/01/07 09:17:39;;;;;;;58.80;55.33;;;9.70;99.90;;;;;;4972027;28;20046;-76
2023/01/07 09:20:06;;;;;;;66.17;62.27;;;9.60;99.90;;;;;;5005502;28;20046;-79
2023/01/07 09:22:33;;;;;;;43.53;41.00;;;9.60;99.90;;;;;;5006060;28;20041;-76
2023/01/07 09:24:59;;;;;;;51.70;48.40;;;9.60;99.90;;;;;;4992258;28;20565;-75
2023/01/07 09:27:28;;;;;;;56.10;52.90;;;9.60;99.90;;;;;;4989183;28;20041;-77
2023/01/07 09:29:57;;;;;;;81.03;76.67;;;9.60;99.90;;;;;;5003778;28;20049;-76
2023/01/07 09:32:23;;;;;;;60.23;56.80;;;9.60;99.90;;;;;;4995627;28;20514;-76
2023/01/07 09:34:49;;;;;;;67.00;63.27;;;9.60;99.90;;;;;;5006498;28;20401;-76
2023/01/07 09:37:15;;;;;;;42.17;39.47;;;9.60;99.90;;;;;;4991372;28;20050;-76
2023/01/07 09:39:41;;;;;;;48.30;45.57;;;9.60;99.90;;;;;;5006351;28;20200;-76
2023/01/07 09:42:32;;;;;;;52.27;49.43;;;9.60;99.90;;;;;;4984176;28;20088;-77
2023/01/07 09:45:11;;;;;;;78.28;74.22;;;9.60;99.90;;;;;;4986103;28;20074;-77
2023/01/07 09:47:41;;;;;;;56.23;53.17;;;9.60;99.90;;;;;;4970925;28;20437;-76
2023/01/07 09:50:21;;;;;;;45.57;42.87;;;9.60;99.90;;;;;;5000788;28;20057;-77
2023/01/07 09:52:53;;;;;;;59.73;56.40;;;9.60;99.90;;;;;;4997151;28;20145;-76
2023/01/07 09:55:24;;;;;;;55.57;52.50;;;9.60;99.90;;;;;;4993541;28;20403;-76
2023/01/07 09:57:50;;;;;;;;;;;9.70;99.90;;;;;;4972520;28;20042;-77
2023/01/07 10:00:18;;;;;;;40.50;38.40;;;9.60;99.90;;;;;;4996758;28;19926;-77
2023/01/07 10:03:06;;;;;;;52.03;49.23;;;9.70;99.90;;;;;;4984828;28;20100;-77
2023/01/07 10:05:43;;;;;;;39.17;36.90;;;9.70;99.90;;;;;;4985481;28;20082;-77
2023/01/07 10:08:14;;;;;;;41.73;39.33;;;9.70;99.90;;;;;;4969803;28;20050;-76
2023/01/07 10:10:55;;;;;;;51.60;48.78;;;9.70;99.90;;;;;;4985761;28;20132;-77
2023/01/07 10:13:23;;;;;;;64.43;61.17;;;9.70;99.90;;;;;;4992990;28;20049;-76
2023/01/07 10:16:16;;;;;;;73.90;69.93;;;9.80;99.90;;;;;;5004709;28;20081;-76
2023/01/07 10:19:01;;;;;;;46.10;43.50;;;9.80;99.90;;;;;;4982273;28;20448;-76
2023/01/07 10:21:34;;;;;;;56.17;53.30;;;9.80;99.90;;;;;;5004815;28;20101;-77
2023/01/07 10:24:11;;;;;;;48.20;45.77;;;10.00;99.90;;;;;;5003241;28;20057;-78
2023/01/07 10:26:42;;;;;;;45.77;43.20;;;10.20;99.90;;;;;;4942356;28;20517;-76
2023/01/07 10:29:33;;;;;;;41.05;38.70;;;10.50;99.90;;;;;;4983358;28;20049;-76
2023/01/07 10:32:07;;;;;;;62.90;59.67;;;10.30;99.90;;;;;;4984603;28;20042;-77
2023/01/07 10:34:44;;;;;;;63.20;59.90;;;10.20;99.90;;;;;;4967463;28;20122;-77
2023/01/07 10:37:32;;;;;;;47.60;45.13;;;10.20;99.90;;;;;;4964848;28;20487;-78
2023/01/07 10:40:17;;;;;;;61.97;58.90;;;10.20;99.90;;;;;;4966489;28;20066;-79
2023/01/07 10:43:16;;;;;;;88.53;84.23;;;10.20;99.90;;;;;;4987526;28;20054;-78
2023/01/07 10:45:57;;;;;;;41.83;39.73;;;10.00;99.90;;;;;;4985920;28;20062;-77
2023/01/07 10:48:22;;;;;;;53.07;50.20;;;9.90;99.90;;;;;;4978721;28;20563;-77
2023/01/07 10:50:51;;;;;;;40.23;38.13;;;10.00;99.90;;;;;;4977690;28;20293;-78
2023/01/07 10:53:39;;;;;;;105.07;99.77;;;10.00;99.90;;;;;;5005283;28;20053;-76
2023/01/07 10:56:24;;;;;;;87.30;82.73;;;10.10;99.90;;;;;;5005472;28;20050;-77
2023/01/07 10:58:50;;;;;;;79.77;75.87;;;10.10;99.90;;;;;;4980594;28;20569;-76
2023/01/07 11:01:22;;;;;;;59.47;56.40;;;10.10;99.90;;;;;;4971832;28;20467;-80
2023/01/07 11:03:53;;;;;;;40.33;38.37;;;10.10;99.90;;;;;;5007855;28;20068;-76
2023/01/07 11:06:32;;;;;;;41.67;39.60;;;10.20;99.90;;;;;;4998130;28;20065;-76
2023/01/07 11:08:59;;;;;;;43.67;41.37;;;10.20;99.90;;;;;;4989743;28;20132;-77
2023/01/07 11:11:24;;;;;;;77.57;73.57;;;10.20;99.90;;;;;;5009058;28;20058;-76
2023/01/07 11:14:02;;;;;;;60.20;57.23;;;10.30;99.90;;;;;;5008794;28;20056;-76
2023/01/07 11:16:34;;;;;;;124.33;116.07;;;10.40;99.90;;;;;;4978484;28;20526;-77
2023/01/07 11:19:06;;;;;;;33.53;31.63;;;10.50;99.90;;;;;;4998402;28;20061;-77
2023/01/07 11:21:37;;;;;;;106.88;101.22;;;10.40;99.90;;;;;;4988324;28;20042;-77
2023/01/07 11:24:18;;;;;;;60.83;57.80;;;10.40;99.90;;;;;;4989867;28;20062;-77
2023/01/07 11:26:44;;;;;;;48.42;46.00;;;10.40;99.90;;;;;;4977539;28;20061;-76
2023/01/07 11:29:31;;;;;;;68.73;65.33;;;10.50;99.90;;;;;;4997075;28;20050;-77
2023/01/07 11:32:01;;;;;;;46.13;43.93;;;10.70;99.90;;;;;;4988259;28;20447;-77
2023/01/07 11:34:59;;;;;;;71.27;67.77;;;11.00;99.90;;;;;;4970960;28;20128;-76
2023/01/07 11:37:42;;;;;;;29.40;28.00;;;11.50;99.90;;;;;;4961584;28;20050;-77
2023/01/07 11:40:13;;;;;;;41.03;38.90;;;11.70;99.90;;;;;;5007124;28;20536;-76
2023/01/07 11:42:55;;;;;;;41.80;39.80;;;11.70;99.90;;;;;;5007072;28;20046;-77
2023/01/07 11:45:23;;;;;;;54.65;52.00;;;11.70;99.90;;;;;;5001504;28;20505;-77
2023/01/07 11:47:54;;;;;;;79.13;75.07;;;11.80;99.90;;;;;;4959367;28;20128;-78
2023/01/07 11:50:42;;;;;;;78.95;74.75;;;11.70;99.90;;;;;;4991758;28;20514;-76
2023/01/07 11:53:13;;;;;;;81.23;77.20;;;11.40;99.90;;;;;;4992962;28;20499;-77
2023/01/07 11:55:53;;;;;;;111.53;106.10;;;11.20;99.90;;;;;;5008943;28;20045;-77
2023/01/07 11:58:19;;;;;;;66.60;63.53;;;10.90;99.90;;;;;;4969948;28;20049;-76
2023/01/07 12:00:45;;;;;;;68.10;64.93;;;10.80;99.90;;;;;;4997125;28;20049;-78
2023/01/07 12:03:12;;;;;;;78.47;74.83;;;10.70;99.90;;;;;;5007174;28;20550;-76
2023/01/07 12:05:40;;;;;;;64.27;61.27;;;10.70;99.90;;;;;;4989047;28;20073;-77
2023/01/07 12:08:06;;;;;;;62.50;59.47;;;10.70;99.90;;;;;;4991648;28;20256;-80
2023/01/07 12:10:35;;;;;;;63.63;60.67;;;10.70;99.90;;;;;;5008734;28;20057;-76
2023/01/07 12:13:04;;;;;;;72.83;69.30;;;10.60;99.90;;;;;;4989176;28;20053;-76
2023/01/07 12:15:33;;;;;;;68.43;65.30;;;10.60;99.90;;;;;;5008254;28;20042;-76
2023/01/07 12:18:02;;;;;;;79.33;75.57;;;10.60;99.90;;;;;;4973675;28;20050;-76
2023/01/07 12:20:30;;;;;;;54.27;51.63;;;10.50;99.90;;;;;;5008092;28;20056;-76
2023/01/07 12:23:08;;;;;;;54.50;51.87;;;10.50;99.90;;;;;;5015710;28;20049;-77
2023/01/07 12:25:44;;;;;;;105.67;100.60;;;10.60;99.90;;;;;;5005375;28;20057;-77
2023/01/07 12:28:17;;;;;;;81.63;77.60;;;10.60;99.90;;;;;;4991356;28;20049;-76
2023/01/07 12:30:49;;;;;;;145.90;137.13;;;10.70;99.90;;;;;;5009177;28;20053;-77
2023/01/07 12:33:44;;;;;;;98.87;93.97;;;10.70;99.90;;;;;;4978420;28;20046;-77
2023/01/07 12:36:33;;;;;;;30.63;29.00;;;10.80;99.90;;;;;;4985017;28;20050;-78
2023/01/07 12:39:02;;;;;;;161.50;148.90;;;10.80;99.90;;;;;;5005252;28;20273;-76
2023/01/07 12:41:35;;;;;;;94.83;90.30;;;10.70;99.90;;;;;;5007743;28;20135;-76
2023/01/07 12:44:30;;;;;;;45.47;43.20;;;10.70;99.90;;;;;;5006835;28;20109;-76
2023/01/07 12:47:16;;;;;;;45.30;43.17;;;10.80;99.90;;;;;;4979279;28;20119;-80
2023/01/07 12:49:51;;;;;;;45.50;43.33;;;10.80;99.90;;;;;;5006970;28;20528;-77
2023/01/07 12:52:19;;;;;;;56.90;54.23;;;10.90;99.90;;;;;;4988168;28;20046;-77